Time;durP1;ratioP1;P1;durP2;ratioP2;P2;SDS_P1;SDS_P2;PMS_P1;PMS_P2;Temp;Humidity;BMP_temperature;BMP_pressure;BME280_temperature;BME280_humidity;BME280_pressure;Samples;Min_cycle;Max_cycle;Signal;HPM_P1;HPM_P2
2022/04/28 00:00:24;;;;;;;12.55;8.13;;;;;;;-139.48;100.00;61774.03;4998945;28;20087;-70
2022/04/28 00:03:09;;;;;;;15.52;9.82;;;;;;;-139.48;100.00;61774.03;4998797;28;20053;-69
2022/04/28 00:05:53;;;;;;;10.57;8.65;;;;;;;-139.48;100.00;61774.03;5014010;28;20114;-70
2022/04/28 00:08:37;;;;;;;11.45;8.80;;;;;;;-139.48;100.00;61774.03;5013752;28;20112;-69
2022/04/28 00:11:21;;;;;;;11.98;8.45;;;;;;;-139.48;100.00;61774.03;5013448;28;20068;-69
2022/04/28 00:14:07;;;;;;;11.00;9.13;;;;;;;-139.48;100.00;61774.03;4985015;28;20112;-70
2022/04/28 00:16:52;;;;;;;10.80;8.88;;;;;;;-139.48;100.00;61774.03;4999395;28;20084;-69
2022/04/28 00:19:35;;;;;;;13.73;9.25;;;;;;;-139.48;100.00;61774.03;4998725;28;20123;-69
2022/04/28 00:22:21;;;;;;;10.98;9.00;;;;;;;-139.48;100.00;61774.03;5013573;28;20513;-70
2022/04/28 00:25:06;;;;;;;13.23;8.93;;;;;;;-139.48;100.00;61774.03;4998863;28;20141;-70
2022/04/28 00:27:51;;;;;;;14.43;9.38;;;;;;;-139.48;100.00;61774.03;4998492;28;20474;-69
2022/04/28 00:30:34;;;;;;;12.10;9.52;;;;;;;-139.48;100.00;61774.03;4998689;28;20052;-70
2022/04/28 00:33:18;;;;;;;13.77;9.07;;;;;;;-139.48;100.00;61774.03;5013186;28;20064;-69
2022/04/28 00:36:02;;;;;;;12.15;8.65;;;;;;;-139.48;100.00;61774.03;4998653;28;20133;-69
2022/04/28 00:38:46;;;;;;;13.85;9.45;;;;;;;-139.48;100.00;61774.03;5013215;28;20057;-69
2022/04/28 00:41:30;;;;;;;10.88;8.80;;;;;;;-139.48;100.00;61774.03;4984516;28;20107;-69
2022/04/28 00:44:14;;;;;;;13.38;8.70;;;;;;;-139.48;100.00;61774.03;4998231;28;20049;-69
2022/04/28 00:46:58;;;;;;;11.95;9.07;;;;;;;-139.48;100.00;61774.03;4998497;28;20049;-70
2022/04/28 00:52:45;;;;;;;11.23;9.27;;;;;;;-139.48;100.00;61774.03;5000843;28;20088;-69
2022/04/28 00:55:29;;;;;;;12.23;9.40;;;;;;;-139.48;100.00;61774.03;4984669;28;20536;-69
2022/04/28 00:58:13;;;;;;;13.35;9.85;;;;;;;-139.48;100.00;61774.03;4998410;28;20073;-69
2022/04/28 01:00:57;;;;;;;14.55;10.43;;;;;;;-139.48;100.00;61774.03;4998388;28;20053;-69
2022/04/28 01:03:41;;;;;;;13.18;9.68;;;;;;;-139.48;100.00;61774.03;5002242;28;20049;-69
2022/04/28 01:06:25;;;;;;;14.52;10.18;;;;;;;-139.48;100.00;61774.03;5016702;28;20061;-69
2022/04/28 01:09:10;;;;;;;13.98;10.55;;;;;;;-139.48;100.00;61774.03;5002066;28;20145;-69
2022/04/28 01:11:54;;;;;;;12.43;9.88;;;;;;;-139.48;100.00;61774.03;4988543;28;20041;-69
2022/04/28 01:14:38;;;;;;;14.43;9.75;;;;;;;-139.48;100.00;61774.03;5001770;28;20417;-69
2022/04/28 01:17:22;;;;;;;14.27;10.10;;;;;;;-139.48;100.00;61774.03;5001855;28;20048;-69
2022/04/28 01:20:07;;;;;;;14.63;10.07;;;;;;;-139.48;100.00;61774.03;5016656;28;20056;-69
2022/04/28 01:22:50;;;;;;;13.93;9.95;;;;;;;-139.48;100.00;61774.03;5001537;28;20414;-69
2022/04/28 01:25:34;;;;;;;12.50;10.07;;;;;;;-139.48;100.00;61774.03;5001699;28;20457;-69
2022/04/28 01:28:18;;;;;;;13.50;9.60;;;;;;;-139.48;100.00;61774.03;5001338;28;20084;-69
2022/04/28 01:31:05;;;;;;;12.07;9.23;;;;;;;-139.48;100.00;61774.03;4987703;28;20139;-69
2022/04/28 01:33:49;;;;;;;13.20;10.07;;;;;;;-139.48;100.00;61774.03;5016241;28;20048;-69
2022/04/28 01:36:35;;;;;;;16.45;10.20;;;;;;;-139.48;100.00;61774.03;5001226;28;20513;-69
2022/04/28 01:39:20;;;;;;;11.82;9.40;;;;;;;-139.48;100.00;61774.03;5016304;28;20467;-69
2022/04/28 01:42:05;;;;;;;13.88;10.95;;;;;;;-139.48;100.00;61774.03;4987303;28;20061;-69
2022/04/28 01:47:36;;;;;;;15.23;10.68;;;;;;;-139.48;100.00;61774.03;4976165;28;20146;-69
2022/04/28 01:50:19;;;;;;;14.45;11.27;;;;;;;-139.48;100.00;61774.03;4962284;28;20086;-69
2022/04/28 01:56:06;;;;;;;14.93;10.63;;;;;;;-139.48;100.00;61774.03;4957658;29;20411;-69
2022/04/28 01:58:50;;;;;;;13.75;10.55;;;;;;;-139.48;100.00;61774.03;4957603;29;20139;-69
2022/04/28 02:01:34;;;;;;;12.95;10.15;;;;;;;-139.48;100.00;61774.03;4957230;29;20415;-69
2022/04/28 02:04:19;;;;;;;13.32;10.80;;;;;;;-139.48;100.00;61774.03;4942826;29;20058;-69
2022/04/28 02:07:03;;;;;;;13.70;10.48;;;;;;;-139.48;100.00;61774.03;4942835;29;20511;-69
2022/04/28 02:09:47;;;;;;;14.50;10.45;;;;;;;-139.48;100.00;61774.03;4942604;29;20102;-69
2022/04/28 02:12:31;;;;;;;12.77;10.40;;;;;;;-139.48;100.00;61774.03;4942528;28;20557;-69
2022/04/28 02:15:15;;;;;;;12.65;10.35;;;;;;;-139.48;100.00;61774.03;4942530;29;20526;-69
2022/04/28 02:17:59;;;;;;;17.58;11.18;;;;;;;-139.48;100.00;61774.03;4942628;29;20116;-69
2022/04/28 02:20:43;;;;;;;17.33;10.65;;;;;;;-139.48;100.00;61774.03;4942625;29;20050;-69
2022/04/28 02:23:26;;;;;;;16.35;11.05;;;;;;;-139.48;100.00;61774.03;4957113;29;20049;-69
2022/04/28 02:26:10;;;;;;;16.33;11.77;;;;;;;-139.48;100.00;61774.03;4957150;29;20058;-69
2022/04/28 02:28:54;;;;;;;15.05;12.05;;;;;;;-139.48;100.00;61774.03;4942553;29;20054;-69
2022/04/28 02:31:38;;;;;;;15.65;12.00;;;;;;;-139.48;100.00;61774.03;4942513;29;20053;-69
2022/04/28 02:34:22;;;;;;;16.30;12.15;;;;;;;-139.48;100.00;61774.03;4942185;29;20431;-69
2022/04/28 02:37:06;;;;;;;21.90;11.75;;;;;;;-139.48;100.00;61774.03;4956890;29;20419;-69
2022/04/28 02:39:50;;;;;;;15.90;11.82;;;;;;;-139.48;100.00;61774.03;4957132;29;20109;-69
2022/04/28 02:42:34;;;;;;;17.05;12.20;;;;;;;-139.48;100.00;61774.03;4942060;29;20093;-69
2022/04/28 02:45:18;;;;;;;14.90;11.13;;;;;;;-139.48;100.00;61774.03;4941792;29;20471;-69
2022/04/28 02:48:02;;;;;;;14.35;11.50;;;;;;;-139.48;100.00;61774.03;4942127;29;20049;-69
2022/04/28 02:50:46;;;;;;;15.38;11.57;;;;;;;-139.48;100.00;61774.03;4942069;29;20050;-69
2022/04/28 02:53:30;;;;;;;15.38;12.13;;;;;;;-139.48;100.00;61774.03;4941720;29;20078;-69
2022/04/28 02:56:14;;;;;;;13.50;11.57;;;;;;;-139.48;100.00;61774.03;4941982;29;20050;-69
2022/04/28 02:58:58;;;;;;;15.98;11.10;;;;;;;-139.48;100.00;61774.03;4956233;29;20090;-69
2022/04/28 03:01:42;;;;;;;13.77;11.13;;;;;;;-139.48;100.00;61774.03;4941730;29;20170;-69
2022/04/28 03:04:26;;;;;;;15.93;11.73;;;;;;;-139.48;100.00;61774.03;4941773;29;20062;-69
2022/04/28 03:13:36;;;;;;;15.40;10.77;;;;;;;-139.48;100.00;61774.03;4916284;29;20046;-69
2022/04/28 03:16:20;;;;;;;15.32;11.43;;;;;;;-139.48;100.00;61774.03;4916384;29;20103;-69
2022/04/28 03:19:04;;;;;;;14.02;11.23;;;;;;;-139.48;100.00;61774.03;4948921;29;20502;-69
2022/04/28 03:21:48;;;;;;;14.73;11.52;;;;;;;-139.48;100.00;61774.03;4956060;29;20102;-69
2022/04/28 03:24:32;;;;;;;18.83;11.40;;;;;;;-139.48;100.00;61774.03;4955510;28;20106;-69
2022/04/28 03:27:16;;;;;;;19.50;12.60;;;;;;;-139.48;100.00;61774.03;4941451;29;20423;-69
2022/04/28 03:30:00;;;;;;;;;;;;;;;-139.48;100.00;61774.03;4941939;29;20424;-69
2022/04/28 03:32:44;;;;;;;14.70;11.73;;;;;;;-139.48;100.00;61774.03;4956240;29;19922;-69
2022/04/28 03:35:28;;;;;;;16.75;12.38;;;;;;;-139.48;100.00;61774.03;4955879;29;20106;-69
2022/04/28 03:38:11;;;;;;;18.85;12.85;;;;;;;-139.48;100.00;61774.03;4941061;29;20533;-69
2022/04/28 03:40:55;;;;;;;18.73;13.38;;;;;;;-139.48;100.00;61774.03;4941330;29;20054;-69
2022/04/28 03:43:39;;;;;;;19.85;12.23;;;;;;;-139.48;100.00;61774.03;4941149;29;20502;-69
2022/04/28 03:46:24;;;;;;;15.63;11.32;;;;;;;-139.48;100.00;61774.03;4941161;29;20578;-69
2022/04/28 03:49:08;;;;;;;15.68;12.13;;;;;;;-139.48;100.00;61774.03;4955424;29;20098;-69
2022/04/28 03:51:52;;;;;;;18.02;11.90;;;;;;;-139.48;100.00;61774.03;4941119;29;20066;-69
2022/04/28 03:54:36;;;;;;;18.85;13.45;;;;;;;-139.48;100.00;61774.03;4941264;29;20089;-69
2022/04/28 03:57:20;;;;;;;18.67;12.63;;;;;;;-139.48;100.00;61774.03;4941071;29;20057;-69
2022/04/28 04:00:05;;;;;;;15.45;12.50;;;;;;;-139.48;100.00;61774.03;4941056;29;20129;-69
2022/04/28 04:02:49;;;;;;;16.08;12.75;;;;;;;-139.48;100.00;61774.03;4940731;29;20047;-69
2022/04/28 04:05:33;;;;;;;17.00;12.27;;;;;;;-139.48;100.00;61774.03;4940692;29;20105;-69
2022/04/28 04:08:17;;;;;;;23.30;13.05;;;;;;;-139.48;100.00;61774.03;4940701;29;20046;-69
2022/04/28 04:11:01;;;;;;;18.02;13.10;;;;;;;-139.48;100.00;61774.03;4940769;29;20085;-69
2022/04/28 04:13:46;;;;;;;15.90;12.88;;;;;;;-139.48;100.00;61774.03;4955392;29;20094;-69
2022/04/28 04:16:30;;;;;;;17.30;13.02;;;;;;;-139.48;100.00;61774.03;4941029;29;20518;-69
2022/04/28 04:19:14;;;;;;;17.23;12.70;;;;;;;-139.48;100.00;61774.03;4940830;29;20050;-69
2022/04/28 04:21:58;;;;;;;18.95;14.52;;;;;;;-139.48;100.00;61774.03;4940731;29;20043;-69
2022/04/28 04:24:42;;;;;;;20.55;13.70;;;;;;;-139.48;100.00;61774.03;4940485;29;20122;-69
2022/04/28 04:27:26;;;;;;;18.42;13.73;;;;;;;-139.48;100.00;61774.03;4955024;29;20050;-69
2022/04/28 04:33:13;;;;;;;18.65;14.38;;;;;;;-139.48;100.00;61774.03;4943370;29;20086;-69
2022/04/28 04:35:57;;;;;;;20.17;14.32;;;;;;;-139.48;100.00;61774.03;4941934;29;20114;-69
2022/04/28 04:38:41;;;;;;;21.85;14.07;;;;;;;-139.48;100.00;61774.03;4959103;29;20066;-69
2022/04/28 04:41:25;;;;;;;20.98;14.52;;;;;;;-139.48;100.00;61774.03;4944668;29;20130;-69
2022/04/28 04:44:13;;;;;;;20.25;14.38;;;;;;;-139.48;100.00;61774.03;4944379;29;20134;-69
2022/04/28 04:46:57;;;;;;;17.15;14.07;;;;;;;-139.48;100.00;61774.03;4944666;29;20106;-69
2022/04/28 04:49:41;;;;;;;16.63;13.40;;;;;;;-139.48;100.00;61774.03;4944637;29;20062;-69
2022/04/28 04:52:25;;;;;;;20.50;14.50;;;;;;;-139.48;100.00;61774.03;4958969;29;20050;-69
2022/04/28 04:55:09;;;;;;;21.17;14.63;;;;;;;-139.48;100.00;61774.03;4944026;29;20054;-69
2022/04/28 04:57:52;;;;;;;21.92;14.52;;;;;;;-139.48;100.00;61774.03;4944522;29;20098;-69
2022/04/28 05:00:36;;;;;;;19.02;13.98;;;;;;;-139.48;100.00;61774.03;4958560;29;20073;-69
2022/04/28 05:03:20;;;;;;;18.98;14.15;;;;;;;-139.48;100.00;61774.03;4943897;29;20041;-69
2022/04/28 05:06:04;;;;;;;;;;;;;;;-139.48;100.00;61774.03;4944787;29;20142;-69
2022/04/28 05:08:48;;;;;;;25.67;14.88;;;;;;;-139.48;100.00;61774.03;4957603;29;19964;-69
2022/04/28 05:11:32;;;;;;;20.73;14.32;;;;;;;-139.48;100.00;61774.03;4958610;29;20498;-69
2022/04/28 05:14:16;;;;;;;18.58;15.02;;;;;;;-139.48;100.00;61774.03;4944023;29;20094;-69
2022/04/28 05:17:00;;;;;;;20.92;14.93;;;;;;;-139.48;100.00;61774.03;4958417;29;20098;-69
2022/04/28 05:19:44;;;;;;;18.05;14.20;;;;;;;-139.48;100.00;61774.03;4958333;29;20054;-69
2022/04/28 05:22:28;;;;;;;20.17;15.45;;;;;;;-139.48;100.00;61774.03;4943714;29;20046;-69
2022/04/28 05:25:12;;;;;;;22.38;16.15;;;;;;;-139.48;100.00;61774.03;4958246;29;20050;-69
2022/04/28 05:27:56;;;;;;;18.30;14.77;;;;;;;-139.48;100.00;61774.03;4943537;29;20049;-69
2022/04/28 05:30:40;;;;;;;22.17;15.65;;;;;;;-139.48;100.00;61774.03;4943729;29;20102;-69
2022/04/28 05:33:24;;;;;;;25.20;17.15;;;;;;;-139.48;100.00;61774.03;4958197;29;20506;-69
2022/04/28 05:36:09;;;;;;;23.58;16.90;;;;;;;-139.48;100.00;61774.03;4943616;29;20086;-69
2022/04/28 05:38:54;;;;;;;21.80;16.25;;;;;;;-139.48;100.00;61774.03;4943516;29;20093;-69
2022/04/28 05:41:39;;;;;;;21.05;15.98;;;;;;;-139.48;100.00;61774.03;4943171;29;20055;-69
2022/04/28 05:47:26;;;;;;;22.42;15.77;;;;;;;-139.48;100.00;61774.03;4956977;28;20102;-69
2022/04/28 05:50:10;;;;;;;22.90;17.05;;;;;;;-139.48;100.00;61774.03;4958031;29;20110;-69
2022/04/28 05:52:54;;;;;;;22.95;16.88;;;;;;;-139.48;100.00;61774.03;4943445;29;20101;-69
2022/04/28 05:55:38;;;;;;;19.55;15.57;;;;;;;-139.48;100.00;61774.03;4943335;29;20190;-69
2022/04/28 05:58:22;;;;;;;23.08;16.67;;;;;;;-139.48;100.00;61774.03;4943549;29;20042;-69
2022/04/28 06:01:06;;;;;;;22.52;16.25;;;;;;;-139.48;100.00;61774.03;4943467;29;20063;-69
2022/04/28 06:03:50;;;;;;;22.33;15.65;;;;;;;-139.48;100.00;61774.03;4943055;29;20077;-69
2022/04/28 06:06:34;;;;;;;24.45;16.17;;;;;;;-139.48;100.00;61774.03;4943695;29;20058;-69
2022/04/28 06:09:18;;;;;;;23.23;16.52;;;;;;;-139.48;100.00;61774.03;4942672;29;20058;-69
2022/04/28 06:12:02;;;;;;;21.35;15.48;;;;;;;-139.48;100.00;61774.03;4943008;29;20399;-69
2022/04/28 06:14:48;;;;;;;19.80;15.38;;;;;;;-139.48;100.00;61774.03;4957527;29;20101;-68
2022/04/28 06:17:32;;;;;;;20.60;15.60;;;;;;;-139.48;100.00;61774.03;4957475;29;20129;-69
2022/04/28 06:20:15;;;;;;;18.85;14.25;;;;;;;-139.48;100.00;61774.03;4942999;29;20106;-69
2022/04/28 06:22:59;;;;;;;21.42;15.05;;;;;;;-139.48;100.00;61774.03;4942855;29;20050;-69
2022/04/28 06:25:43;;;;;;;18.42;14.20;;;;;;;-139.48;100.00;61774.03;4957074;29;20174;-69
2022/04/28 06:28:28;;;;;;;18.83;14.63;;;;;;;-139.48;100.00;61774.03;4942701;29;20138;-69
2022/04/28 06:31:11;;;;;;;29.25;14.48;;;;;;;-139.48;100.00;61774.03;4957314;29;20062;-69
2022/04/28 06:33:55;;;;;;;20.20;13.13;;;;;;;-139.48;100.00;61774.03;4942891;29;20509;-69
2022/04/28 06:36:39;;;;;;;17.23;13.90;;;;;;;-139.48;100.00;61774.03;4942530;29;20053;-69
2022/04/28 06:39:23;;;;;;;17.17;13.85;;;;;;;-139.48;100.00;61774.03;4956962;29;20514;-69
2022/04/28 06:42:07;;;;;;;18.90;13.82;;;;;;;-139.48;100.00;61774.03;4942243;29;20053;-69
2022/04/28 06:44:52;;;;;;;17.50;12.98;;;;;;;-139.48;100.00;61774.03;4942211;29;20062;-69
2022/04/28 06:47:36;;;;;;;17.13;13.77;;;;;;;-139.48;100.00;61774.03;4942252;29;20082;-69
2022/04/28 06:50:19;;;;;;;19.38;12.98;;;;;;;-139.48;100.00;61774.03;4956772;29;20050;-69
2022/04/28 06:53:03;;;;;;;19.75;14.95;;;;;;;-139.48;100.00;61774.03;4956839;29;20511;-69
2022/04/28 06:55:47;;;;;;;22.52;14.98;;;;;;;-139.48;100.00;61774.03;4941903;29;20574;-69
2022/04/28 06:58:31;;;;;;;21.02;15.00;;;;;;;-139.48;100.00;61774.03;4956604;28;20057;-69
2022/04/28 07:01:15;;;;;;;19.92;14.10;;;;;;;-139.48;100.00;61774.03;4941517;29;20063;-69
2022/04/28 07:03:59;;;;;;;22.35;13.30;;;;;;;-139.48;100.00;61774.03;4942317;29;20046;-69
2022/04/28 07:06:43;;;;;;;19.65;14.55;;;;;;;-139.48;100.00;61774.03;4956305;29;20526;-69
2022/04/28 07:09:27;;;;;;;21.02;14.73;;;;;;;-139.48;100.00;61774.03;4956120;29;20110;-69
2022/04/28 07:12:11;;;;;;;19.63;14.25;;;;;;;-139.48;100.00;61774.03;4941906;29;20159;-69
2022/04/28 07:14:55;;;;;;;16.75;13.30;;;;;;;-139.48;100.00;61774.03;4956336;29;20054;-69
2022/04/28 07:17:39;;;;;;;20.15;14.07;;;;;;;-139.48;100.00;61774.03;4941655;29;20053;-69
2022/04/28 07:20:23;;;;;;;17.83;13.07;;;;;;;-139.48;100.00;61774.03;4941882;29;20101;-69
2022/04/28 07:23:07;;;;;;;18.67;13.60;;;;;;;-139.48;100.00;61774.03;4955893;29;20054;-69
2022/04/28 07:25:51;;;;;;;17.48;13.27;;;;;;;-139.48;100.00;61774.03;4956491;29;20530;-69
2022/04/28 07:28:34;;;;;;;17.63;13.50;;;;;;;-139.48;100.00;61774.03;4941833;29;20147;-69
2022/04/28 07:31:18;;;;;;;19.05;12.13;;;;;;;-139.48;100.00;61774.03;4941382;29;20509;-69
2022/04/28 07:34:03;;;;;;;14.00;10.70;;;;;;;-139.48;100.00;61774.03;4956082;29;20106;-69
2022/04/28 07:36:47;;;;;;;11.77;10.18;;;;;;;-139.48;100.00;61774.03;4955976;29;20054;-69
2022/04/28 07:39:30;;;;;;;14.00;10.20;;;;;;;-139.48;100.00;61774.03;4941359;29;20062;-69
2022/04/28 07:42:14;;;;;;;14.25;9.63;;;;;;;-139.48;100.00;61774.03;4941496;29;20070;-69
2022/04/28 07:47:51;;;;;;;12.82;9.98;;;;;;;-139.48;100.00;61774.03;4974067;28;20141;-69
2022/04/28 07:50:35;;;;;;;14.38;9.88;;;;;;;-139.48;100.00;61774.03;4960439;28;20414;-70
2022/04/28 07:53:18;;;;;;;12.07;9.35;;;;;;;-139.48;100.00;61774.03;4974795;28;20439;-69
2022/04/28 07:56:14;;;;;;;12.63;9.38;;;;;;;-139.48;100.00;61774.03;4959958;28;20046;-69
2022/04/28 07:58:59;;;;;;;12.23;9.52;;;;;;;-139.48;100.00;61774.03;4974543;28;20170;-70
2022/04/28 08:01:43;;;;;;;11.43;9.63;;;;;;;-139.48;100.00;61774.03;4946658;28;20085;-69
2022/04/28 08:04:27;;;;;;;11.40;9.68;;;;;;;-139.48;100.00;61774.03;4960165;28;20058;-69
2022/04/28 08:07:11;;;;;;;12.07;9.68;;;;;;;-139.48;100.00;61774.03;4959982;28;20121;-69
2022/04/28 08:09:55;;;;;;;12.18;9.23;;;;;;;-139.48;100.00;61774.03;4959966;28;20053;-70
2022/04/28 08:12:39;;;;;;;14.40;9.75;;;;;;;-139.48;100.00;61774.03;4974991;28;20104;-70
2022/04/28 08:15:23;;;;;;;12.95;9.95;;;;;;;-139.48;100.00;61774.03;4959742;28;20131;-69
2022/04/28 08:18:07;;;;;;;14.93;9.73;;;;;;;-139.48;100.00;61774.03;4960044;28;20054;-70
2022/04/28 08:20:51;;;;;;;12.27;9.25;;;;;;;-139.48;100.00;61774.03;4974676;28;20097;-70
2022/04/28 08:23:37;;;;;;;12.75;9.55;;;;;;;-139.48;100.00;61774.03;4959724;28;20085;-70
2022/04/28 08:26:21;;;;;;;11.50;8.35;;;;;;;-139.48;100.00;61774.03;4959628;28;20415;-69
2022/04/28 08:29:05;;;;;;;12.30;9.20;;;;;;;-139.48;100.00;61774.03;4974331;28;20057;-69
2022/04/28 08:31:50;;;;;;;10.38;8.60;;;;;;;-139.48;100.00;61774.03;4959628;28;20097;-70
2022/04/28 08:34:34;;;;;;;13.88;9.32;;;;;;;-139.48;100.00;61774.03;4946170;28;20105;-70
2022/04/28 08:37:18;;;;;;;11.77;8.57;;;;;;;-139.48;100.00;61774.03;4974171;28;20162;-70
2022/04/28 08:40:06;;;;;;;11.65;7.80;;;;;;;-139.48;100.00;61774.03;4959594;28;20073;-70
2022/04/28 08:42:50;;;;;;;11.63;8.27;;;;;;;-139.48;100.00;61774.03;4959486;28;20049;-69
2022/04/28 08:46:50;;;;;;;10.57;8.25;;;;;;;-139.48;100.00;61774.03;4974172;28;20085;-70
2022/04/28 08:48:46;;;;;;;7.85;6.82;;;;;;;-139.48;100.00;61774.03;4962479;28;20533;-69
2022/04/28 08:51:32;;;;;;;8.82;7.18;;;;;;;-139.48;100.00;61774.03;4959381;28;20062;-70
2022/04/28 08:54:16;;;;;;;8.50;6.60;;;;;;;-139.48;100.00;61774.03;4959667;28;20118;-70
2022/04/28 08:57:00;;;;;;;9.93;6.63;;;;;;;-139.48;100.00;61774.03;4959836;28;20056;-70
2022/04/28 08:59:45;;;;;;;8.85;6.05;;;;;;;-139.48;100.00;61774.03;4974116;28;20054;-70
2022/04/28 09:02:29;;;;;;;9.73;6.32;;;;;;;-139.48;100.00;61774.03;4973925;28;20102;-69
2022/04/28 09:05:17;;;;;;;7.22;5.05;;;;;;;-139.48;100.00;61774.03;4959636;28;20074;-69
2022/04/28 09:08:01;;;;;;;7.88;5.80;;;;;;;-139.48;100.00;61774.03;4959403;28;20461;-70
2022/04/28 09:10:45;;;;;;;6.85;5.68;;;;;;;-139.48;100.00;61774.03;4974304;28;20092;-70
2022/04/28 09:16:32;;;;;;;6.65;5.85;;;;;;;-139.48;100.00;61774.03;4973818;28;20430;-70
2022/04/28 09:19:22;;;;;;;8.35;6.18;;;;;;;-139.48;100.00;61774.03;4945914;28;20482;-70
2022/04/28 09:22:09;;;;;;;7.35;6.25;;;;;;;-139.48;100.00;61774.03;4959670;28;20053;-70
2022/04/28 09:24:57;;;;;;;5.80;5.20;;;;;;;-139.48;100.00;61774.03;4962929;28;20053;-70
2022/04/28 09:27:41;;;;;;;7.00;4.85;;;;;;;-139.48;100.00;61774.03;4949314;28;20058;-70
2022/04/28 09:30:26;;;;;;;6.82;4.93;;;;;;;-139.48;100.00;61774.03;4962859;28;20133;-70
2022/04/28 09:33:11;;;;;;;13.45;4.20;;;;;;;-139.48;100.00;61774.03;4962662;28;20070;-70
2022/04/28 09:35:55;;;;;;;5.30;4.40;;;;;;;-139.48;100.00;61774.03;4977000;28;20081;-70
2022/04/28 09:38:39;;;;;;;6.35;3.65;;;;;;;-139.48;100.00;61774.03;4962954;28;20050;-70
2022/04/28 09:44:26;;;;;;;4.18;3.45;;;;;;;-139.48;100.00;61774.03;4965330;28;20101;-70
2022/04/28 09:47:10;;;;;;;5.43;3.53;;;;;;;-139.48;100.00;61774.03;4961912;28;20060;-70
2022/04/28 09:49:57;;;;;;;4.15;3.67;;;;;;;-139.48;100.00;61774.03;4948598;28;20061;-70
2022/04/28 09:52:43;;;;;;;5.57;3.30;;;;;;;-139.48;100.00;61774.03;4963067;28;20045;-70
2022/04/28 09:55:27;;;;;;;3.78;3.33;;;;;;;-139.48;100.00;61774.03;4962198;28;20118;-70
2022/04/28 09:58:11;;;;;;;5.53;3.55;;;;;;;-139.48;100.00;61774.03;4948518;28;20057;-70
2022/04/28 10:01:02;;;;;;;7.93;3.88;;;;;;;-139.48;100.00;61774.03;4948760;28;20053;-70
2022/04/28 10:03:47;;;;;;;7.75;4.22;;;;;;;-139.48;100.00;61774.03;4976792;28;20475;-70
2022/04/28 10:06:33;;;;;;;6.47;3.55;;;;;;;-139.48;100.00;61774.03;4961978;28;20109;-70
2022/04/28 10:09:19;;;;;;;4.93;3.55;;;;;;;-139.48;100.00;61774.03;4962712;28;20133;-70
2022/04/28 10:12:07;;;;;;;4.82;3.47;;;;;;;-139.48;100.00;61774.03;4962114;28;20046;-71
2022/04/28 10:14:53;;;;;;;5.05;3.63;;;;;;;-139.48;100.00;61774.03;4961995;28;20054;-70
2022/04/28 10:17:40;;;;;;;5.07;3.60;;;;;;;-139.48;100.00;61774.03;4962460;28;20053;-70
2022/04/28 10:20:30;;;;;;;4.25;3.70;;;;;;;-139.48;100.00;61774.03;4976305;28;20089;-70
2022/04/28 10:23:15;;;;;;;5.95;3.40;;;;;;;-139.48;100.00;61774.03;4976271;28;20142;-70
2022/04/28 10:32:23;;;;;;;4.07;3.37;;;;;;;-139.48;100.00;61774.03;4964094;28;20138;-70
2022/04/28 10:35:07;;;;;;;4.50;3.22;;;;;;;-139.48;100.00;61774.03;4976002;28;20089;-70
2022/04/28 10:37:51;;;;;;;4.05;3.45;;;;;;;-139.48;100.00;61774.03;4976010;28;20470;-70
2022/04/28 10:40:39;;;;;;;5.07;3.03;;;;;;;-139.48;100.00;61774.03;4948005;28;20058;-70
2022/04/28 10:43:24;;;;;;;3.85;3.38;;;;;;;-139.48;100.00;61774.03;4961125;28;20058;-70
2022/04/28 10:46:09;;;;;;;6.10;3.20;;;;;;;-139.48;100.00;61774.03;4975693;28;20118;-69
2022/04/28 10:48:55;;;;;;;3.80;3.40;;;;;;;-139.48;100.00;61774.03;4976096;28;20562;-70
2022/04/28 10:51:42;;;;;;;7.95;3.22;;;;;;;-139.48;100.00;61774.03;4961322;28;20054;-70
2022/04/28 10:54:42;;;;;;;4.50;3.80;;;;;;;-139.48;100.00;61774.03;4947744;28;20061;-70
2022/04/28 10:57:31;;;;;;;4.00;3.67;;;;;;;-139.48;100.00;61774.03;4961202;28;20208;-70
2022/04/28 11:00:34;;;;;;;3.70;3.38;;;;;;;-139.48;100.00;61774.03;4961538;28;20130;-70
2022/04/28 11:03:43;;;;;;;4.18;3.22;;;;;;;-139.48;100.00;61774.03;4961129;28;20054;-70
2022/04/28 11:06:39;;;;;;;3.30;3.05;;;;;;;-139.48;100.00;61774.03;4975389;28;20553;-70
2022/04/28 11:09:34;;;;;;;3.80;3.50;;;;;;;-139.48;100.00;61774.03;4961208;28;20097;-70
2022/04/28 11:12:19;;;;;;;4.07;3.28;;;;;;;-139.48;100.00;61774.03;4975347;28;20513;-70
2022/04/28 11:15:06;;;;;;;3.42;3.13;;;;;;;-139.48;100.00;61774.03;4960539;28;20117;-70
2022/04/28 11:17:50;;;;;;;4.80;2.88;;;;;;;-139.48;100.00;61774.03;4975814;28;20045;-70
2022/04/28 11:20:34;;;;;;;2.83;2.53;;;;;;;-139.48;100.00;61774.03;4975491;28;20049;-70
2022/04/28 11:23:19;;;;;;;5.32;2.90;;;;;;;-139.48;100.00;61774.03;4975152;28;20050;-70
2022/04/28 11:26:03;;;;;;;5.38;3.03;;;;;;;-139.48;100.00;61774.03;4960713;28;20057;-70
2022/04/28 11:28:47;;;;;;;4.25;3.20;;;;;;;-139.48;100.00;61774.03;4960775;28;20101;-70
2022/04/28 11:31:31;;;;;;;3.65;3.35;;;;;;;-139.48;100.00;61774.03;4975155;28;20112;-70
2022/04/28 11:34:17;;;;;;;3.80;3.30;;;;;;;-139.48;100.00;61774.03;4960411;28;20455;-70
2022/04/28 11:37:17;;;;;;;3.42;3.00;;;;;;;-139.48;100.00;61774.03;4974995;28;20049;-71
2022/04/28 11:40:00;;;;;;;7.25;3.58;;;;;;;-139.48;100.00;61774.03;4974948;28;20120;-70
2022/04/28 11:42:45;;;;;;;4.03;3.40;;;;;;;-139.48;100.00;61774.03;4974849;28;20050;-70
2022/04/28 11:45:31;;;;;;;6.43;3.10;;;;;;;-139.48;100.00;61774.03;4974508;28;20438;-70
2022/04/28 11:48:15;;;;;;;3.22;3.03;;;;;;;-139.48;100.00;61774.03;4960663;28;20049;-70
2022/04/28 11:51:03;;;;;;;3.75;3.28;;;;;;;-139.48;100.00;61774.03;4960071;28;20084;-70
2022/04/28 11:53:48;;;;;;;4.07;3.20;;;;;;;-139.48;100.00;61774.03;4974519;28;20185;-70
2022/04/28 11:56:33;;;;;;;3.55;3.20;;;;;;;-139.48;100.00;61774.03;4974608;28;20053;-70
2022/04/28 11:59:17;;;;;;;3.78;3.17;;;;;;;-139.48;100.00;61774.03;4974679;28;20513;-70
2022/04/28 12:02:01;;;;;;;5.78;3.40;;;;;;;-139.48;100.00;61774.03;4960221;28;20065;-70
2022/04/28 12:04:45;;;;;;;4.00;3.63;;;;;;;-139.48;100.00;61774.03;4974593;28;20054;-70
2022/04/28 12:07:31;;;;;;;5.43;3.55;;;;;;;-139.48;100.00;61774.03;4946773;28;20101;-70
2022/04/28 12:19:56;;;;;;;4.28;3.20;;;;;;;-139.48;100.00;61774.03;4948622;28;20050;-70
2022/04/28 12:22:40;;;;;;;;;;;;;;;-139.48;100.00;61774.03;4960470;28;20065;-70
2022/04/28 12:25:25;;;;;;;3.67;3.30;;;;;;;-139.48;100.00;61774.03;4959685;28;19921;-70
2022/04/28 12:28:10;;;;;;;4.55;3.53;;;;;;;-139.48;100.00;61774.03;4974596;28;20093;-70
2022/04/28 12:30:54;;;;;;;3.67;3.38;;;;;;;-139.48;100.00;61774.03;4974243;28;20052;-69
2022/04/28 12:33:40;;;;;;;3.95;3.60;;;;;;;-139.48;100.00;61774.03;4959879;28;20054;-70
2022/04/28 12:36:24;;;;;;;4.22;3.70;;;;;;;-139.48;100.00;61774.03;4974170;28;20093;-70
2022/04/28 12:39:09;;;;;;;4.40;4.00;;;;;;;-139.48;100.00;61774.03;4959691;28;20053;-70
2022/04/28 12:41:53;;;;;;;6.38;3.50;;;;;;;-139.48;100.00;61774.03;4960134;28;20510;-70
2022/04/28 12:44:46;;;;;;;3.85;3.47;;;;;;;-139.48;100.00;61774.03;4974274;28;20122;-70
2022/04/28 12:47:35;;;;;;;4.63;4.20;;;;;;;-139.48;100.00;61774.03;4959842;28;20050;-70
2022/04/28 12:50:24;;;;;;;7.63;3.70;;;;;;;-139.48;100.00;61774.03;4945941;28;20081;-71
2022/04/28 12:53:29;;;;;;;3.92;3.58;;;;;;;-139.48;100.00;61774.03;4959542;28;20515;-70
2022/04/28 12:56:15;;;;;;;6.10;3.78;;;;;;;-139.48;100.00;61774.03;4959476;28;20462;-70
2022/04/28 12:59:03;;;;;;;5.10;4.05;;;;;;;-139.48;100.00;61774.03;4978085;28;20541;-70
2022/04/28 13:01:48;;;;;;;5.05;4.10;;;;;;;-139.48;100.00;61774.03;4950262;28;20054;-70
2022/04/28 13:04:36;;;;;;;4.50;3.78;;;;;;;-139.48;100.00;61774.03;4978284;28;20058;-70
2022/04/28 13:07:21;;;;;;;3.85;3.55;;;;;;;-139.48;100.00;61774.03;4962944;28;20101;-70